WIF436 ENTO-ENZV
Flight info
| Callsign | WIF436 |
|---|---|
| Flight time | 0h 46m |
| Altitude | 24000 |
| Route | TITUX2H TITUX DCT IDIPI IDIPI2R |
| Aircraft | DH8C/M-SDFGR/S |
Departure
| Time | 2026-04-28 09:16 |
|---|---|
| Airport | Sandefjord Airport, Torp (ENTO) |
Arrival
| Time | 2026-04-28 10:02 |
|---|---|
| Airport | Stavanger Airport, Sola (ENZV) |
| Time | Latitude | Longitude | Altitude | Speed | Heading |
|---|---|---|---|---|---|
| 2026-04-28 09:10 | 59.17914 | 10.25450 | 274 ft | 0 kts | 82° |
| 2026-04-28 09:10 | 59.17885 | 10.25524 | 274 ft | 15 kts | 146° |
| 2026-04-28 09:11 | 59.17788 | 10.25638 | 274 ft | 15 kts | 144° |
| 2026-04-28 09:11 | 59.17719 | 10.25728 | 274 ft | 11 kts | 148° |
| 2026-04-28 09:11 | 59.17655 | 10.25820 | 275 ft | 11 kts | 123° |
| 2026-04-28 09:11 | 59.17675 | 10.25886 | 276 ft | 0 kts | 360° |
| 2026-04-28 09:15 | 59.17770 | 10.25883 | 275 ft | 41 kts | 358° |
| 2026-04-28 09:16 | 59.18285 | 10.25871 | 273 ft | 108 kts | 360° |
| 2026-04-28 09:16 | 59.19191 | 10.25846 | 434 ft | 145 kts | 359° |
| 2026-04-28 09:16 | 59.20233 | 10.25772 | 894 ft | 155 kts | 359° |
| 2026-04-28 09:16 | 59.21339 | 10.25741 | 1406 ft | 163 kts | 2° |
| 2026-04-28 09:17 | 59.22500 | 10.25685 | 1924 ft | 173 kts | 357° |
| 2026-04-28 09:17 | 59.23835 | 10.25647 | 1837 ft | 207 kts | 5° |
| 2026-04-28 09:17 | 59.25342 | 10.25808 | 1917 ft | 224 kts | 2° |
| 2026-04-28 09:17 | 59.26889 | 10.25206 | 1942 ft | 237 kts | 338° |
| 2026-04-28 09:18 | 59.28235 | 10.23270 | 2000 ft | 246 kts | 312° |
| 2026-04-28 09:18 | 59.29043 | 10.20302 | 2080 ft | 252 kts | 287° |
| 2026-04-28 09:18 | 59.29154 | 10.16922 | 2122 ft | 248 kts | 262° |
| 2026-04-28 09:18 | 59.28545 | 10.13824 | 2203 ft | 245 kts | 237° |
| 2026-04-28 09:19 | 59.27420 | 10.11357 | 2237 ft | 242 kts | 223° |
| 2026-04-28 09:19 | 59.26045 | 10.09503 | 2227 ft | 240 kts | 204° |
| 2026-04-28 09:19 | 59.24449 | 10.08605 | 2259 ft | 239 kts | 195° |
| 2026-04-28 09:19 | 59.22964 | 10.07209 | 2304 ft | 238 kts | 216° |
| 2026-04-28 09:20 | 59.21672 | 10.05175 | 2360 ft | 240 kts | 219° |
| 2026-04-28 09:20 | 59.20319 | 10.03240 | 2341 ft | 243 kts | 213° |
| 2026-04-28 09:20 | 59.18936 | 10.01568 | 2794 ft | 226 kts | 212° |
| 2026-04-28 09:20 | 59.17634 | 9.99971 | 3250 ft | 215 kts | 214° |
| 2026-04-28 09:21 | 59.16402 | 9.98398 | 3687 ft | 208 kts | 217° |
| 2026-04-28 09:21 | 59.15209 | 9.96880 | 4108 ft | 202 kts | 215° |
| 2026-04-28 09:21 | 59.14034 | 9.95416 | 4529 ft | 199 kts | 218° |
| 2026-04-28 09:21 | 59.12899 | 9.93923 | 4945 ft | 196 kts | 218° |
| 2026-04-28 09:22 | 59.11761 | 9.92484 | 5359 ft | 195 kts | 217° |
| 2026-04-28 09:22 | 59.10768 | 9.90778 | 5717 ft | 190 kts | 245° |
| 2026-04-28 09:22 | 59.10398 | 9.88332 | 6000 ft | 188 kts | 264° |
| 2026-04-28 09:22 | 59.10061 | 9.85911 | 6440 ft | 188 kts | 255° |
| 2026-04-28 09:23 | 59.09571 | 9.83552 | 6890 ft | 187 kts | 253° |
| 2026-04-28 09:23 | 59.09086 | 9.81200 | 7303 ft | 188 kts | 256° |
| 2026-04-28 09:23 | 59.08659 | 9.78806 | 7727 ft | 187 kts | 257° |
| 2026-04-28 09:23 | 59.08193 | 9.76450 | 8155 ft | 187 kts | 255° |
| 2026-04-28 09:24 | 59.07730 | 9.74096 | 8587 ft | 186 kts | 257° |
| 2026-04-28 09:24 | 59.07288 | 9.71740 | 9025 ft | 186 kts | 256° |
| 2026-04-28 09:24 | 59.06821 | 9.69382 | 9466 ft | 187 kts | 257° |
| 2026-04-28 09:24 | 59.06365 | 9.67005 | 9919 ft | 188 kts | 257° |
| 2026-04-28 09:25 | 59.05903 | 9.64625 | 10379 ft | 189 kts | 257° |
| 2026-04-28 09:25 | 59.05434 | 9.62233 | 10798 ft | 190 kts | 257° |
| 2026-04-28 09:25 | 59.04969 | 9.59831 | 11208 ft | 189 kts | 257° |
| 2026-04-28 09:25 | 59.04504 | 9.57435 | 11655 ft | 190 kts | 257° |
| 2026-04-28 09:26 | 59.04033 | 9.55036 | 12096 ft | 189 kts | 257° |
| 2026-04-28 09:26 | 59.03847 | 9.52609 | 12525 ft | 178 kts | 285° |
| 2026-04-28 09:26 | 59.03983 | 9.50211 | 12989 ft | 180 kts | 282° |
| 2026-04-28 09:26 | 59.03990 | 9.47784 | 13464 ft | 183 kts | 277° |
| 2026-04-28 09:27 | 59.04021 | 9.42871 | 14416 ft | 182 kts | 279° |
| 2026-04-28 09:27 | 59.04016 | 9.40397 | 14853 ft | 183 kts | 279° |
| 2026-04-28 09:27 | 59.04039 | 9.37932 | 15297 ft | 183 kts | 281° |
| 2026-04-28 09:28 | 59.04051 | 9.35453 | 15748 ft | 184 kts | 279° |
| 2026-04-28 09:28 | 59.04053 | 9.32968 | 16204 ft | 184 kts | 281° |
| 2026-04-28 09:28 | 59.04074 | 9.30482 | 16676 ft | 185 kts | 281° |
| 2026-04-28 09:28 | 59.04075 | 9.28829 | 16988 ft | 185 kts | 281° |
| 2026-04-28 09:29 | 59.04085 | 9.26327 | 17466 ft | 185 kts | 282° |
| 2026-04-28 09:29 | 59.04098 | 9.23821 | 17951 ft | 186 kts | 281° |
| 2026-04-28 09:29 | 59.04101 | 9.21306 | 18446 ft | 187 kts | 282° |
| 2026-04-28 09:29 | 59.04116 | 9.18778 | 18918 ft | 188 kts | 282° |
| 2026-04-28 09:30 | 59.04126 | 9.16238 | 19355 ft | 188 kts | 283° |
| 2026-04-28 09:30 | 59.04134 | 9.13683 | 19799 ft | 190 kts | 282° |
| 2026-04-28 09:30 | 59.04136 | 9.11121 | 20253 ft | 190 kts | 284° |
| 2026-04-28 09:30 | 59.04145 | 9.08543 | 20714 ft | 192 kts | 283° |
| 2026-04-28 09:31 | 59.04147 | 9.05946 | 21183 ft | 192 kts | 284° |
| 2026-04-28 09:31 | 59.04160 | 9.03337 | 21661 ft | 194 kts | 284° |
| 2026-04-28 09:31 | 59.04157 | 9.00702 | 22148 ft | 196 kts | 284° |
| 2026-04-28 09:31 | 59.04119 | 8.98036 | 22638 ft | 201 kts | 279° |
| 2026-04-28 09:32 | 59.04002 | 8.95321 | 23139 ft | 201 kts | 282° |
| 2026-04-28 09:32 | 59.03937 | 8.92620 | 23592 ft | 201 kts | 284° |
| 2026-04-28 09:32 | 59.03849 | 8.89886 | 24092 ft | 205 kts | 283° |
| 2026-04-28 09:32 | 59.03756 | 8.87128 | 24522 ft | 205 kts | 284° |
| 2026-04-28 09:33 | 59.03674 | 8.84388 | 24951 ft | 206 kts | 284° |
| 2026-04-28 09:33 | 59.03581 | 8.81595 | 25396 ft | 208 kts | 284° |
| 2026-04-28 09:33 | 59.03499 | 8.78750 | 25640 ft | 219 kts | 285° |
| 2026-04-28 09:33 | 59.03420 | 8.75670 | 25726 ft | 237 kts | 282° |
| 2026-04-28 09:34 | 59.03293 | 8.72404 | 25923 ft | 246 kts | 282° |
| 2026-04-28 09:34 | 59.03189 | 8.69087 | 26281 ft | 245 kts | 283° |
| 2026-04-28 09:34 | 59.03079 | 8.65783 | 26685 ft | 245 kts | 282° |
| 2026-04-28 09:34 | 59.02967 | 8.62441 | 26866 ft | 252 kts | 283° |
| 2026-04-28 09:35 | 59.02873 | 8.58937 | 26859 ft | 268 kts | 281° |
| 2026-04-28 09:35 | 59.02730 | 8.55289 | 27056 ft | 272 kts | 280° |
| 2026-04-28 09:35 | 59.02601 | 8.51712 | 27416 ft | 267 kts | 282° |
| 2026-04-28 09:35 | 59.02490 | 8.48089 | 27598 ft | 273 kts | 281° |
| 2026-04-28 09:36 | 59.02356 | 8.44341 | 27625 ft | 283 kts | 280° |
| 2026-04-28 09:36 | 59.02217 | 8.40483 | 27667 ft | 289 kts | 281° |
| 2026-04-28 09:36 | 59.02085 | 8.36562 | 27726 ft | 294 kts | 281° |
| 2026-04-28 09:36 | 59.01940 | 8.32571 | 27776 ft | 299 kts | 279° |
| 2026-04-28 09:37 | 59.01785 | 8.28518 | 27778 ft | 303 kts | 279° |
| 2026-04-28 09:37 | 59.01642 | 8.24425 | 27820 ft | 305 kts | 279° |
| 2026-04-28 09:37 | 59.01500 | 8.20288 | 27847 ft | 310 kts | 278° |
| 2026-04-28 09:37 | 59.01329 | 8.16110 | 27872 ft | 311 kts | 279° |
| 2026-04-28 09:38 | 59.01184 | 8.11910 | 27885 ft | 314 kts | 279° |
| 2026-04-28 09:38 | 59.01026 | 8.07660 | 27885 ft | 318 kts | 278° |
| 2026-04-28 09:38 | 59.00856 | 8.03372 | 27882 ft | 320 kts | 278° |
| 2026-04-28 09:38 | 59.00691 | 7.99057 | 27871 ft | 322 kts | 278° |
| 2026-04-28 09:39 | 59.00532 | 7.94713 | 27845 ft | 324 kts | 278° |
| 2026-04-28 09:39 | 59.00356 | 7.90343 | 27819 ft | 326 kts | 278° |
| 2026-04-28 09:39 | 59.00175 | 7.85946 | 27784 ft | 327 kts | 278° |
| 2026-04-28 09:39 | 59.00008 | 7.81544 | 27735 ft | 328 kts | 278° |
| 2026-04-28 09:40 | 58.99829 | 7.77120 | 27687 ft | 330 kts | 277° |
| 2026-04-28 09:40 | 58.99648 | 7.72674 | 27633 ft | 331 kts | 277° |
| 2026-04-28 09:40 | 58.99467 | 7.68214 | 27569 ft | 332 kts | 277° |
| 2026-04-28 09:40 | 58.99283 | 7.63730 | 27465 ft | 333 kts | 276° |
| 2026-04-28 09:41 | 58.99095 | 7.59333 | 27486 ft | 331 kts | 277° |
| 2026-04-28 09:41 | 58.98915 | 7.54885 | 27480 ft | 330 kts | 277° |
| 2026-04-28 09:41 | 58.98734 | 7.50391 | 27179 ft | 338 kts | 276° |
| 2026-04-28 09:41 | 58.98541 | 7.45837 | 26859 ft | 339 kts | 276° |
| 2026-04-28 09:42 | 58.98342 | 7.41276 | 26543 ft | 340 kts | 276° |
| 2026-04-28 09:42 | 58.98144 | 7.36698 | 26232 ft | 340 kts | 276° |
| 2026-04-28 09:42 | 58.97949 | 7.32132 | 25915 ft | 340 kts | 276° |
| 2026-04-28 09:42 | 58.97752 | 7.27566 | 25603 ft | 340 kts | 275° |
| 2026-04-28 09:43 | 58.97549 | 7.23002 | 25291 ft | 340 kts | 275° |
| 2026-04-28 09:43 | 58.97346 | 7.18432 | 24981 ft | 340 kts | 275° |
| 2026-04-28 09:43 | 58.97144 | 7.13861 | 24672 ft | 341 kts | 275° |
| 2026-04-28 09:43 | 58.96943 | 7.09287 | 24370 ft | 340 kts | 275° |
| 2026-04-28 09:44 | 58.96741 | 7.04717 | 24057 ft | 340 kts | 275° |
| 2026-04-28 09:44 | 58.96541 | 7.00148 | 23697 ft | 340 kts | 275° |
| 2026-04-28 09:44 | 58.96333 | 6.95632 | 23304 ft | 340 kts | 274° |
| 2026-04-28 09:44 | 58.96112 | 6.91057 | 22930 ft | 341 kts | 273° |
| 2026-04-28 09:45 | 58.95900 | 6.86489 | 22567 ft | 341 kts | 274° |
| 2026-04-28 09:45 | 58.95686 | 6.81917 | 22215 ft | 341 kts | 273° |
| 2026-04-28 09:45 | 58.95464 | 6.77348 | 21868 ft | 341 kts | 273° |
| 2026-04-28 09:45 | 58.95237 | 6.72776 | 21526 ft | 341 kts | 273° |
| 2026-04-28 09:46 | 58.95023 | 6.68193 | 21187 ft | 341 kts | 273° |
| 2026-04-28 09:46 | 58.94802 | 6.63626 | 20848 ft | 342 kts | 271° |
| 2026-04-28 09:46 | 58.94296 | 6.59070 | 20484 ft | 345 kts | 267° |
| 2026-04-28 09:46 | 58.94332 | 6.54570 | 20190 ft | 327 kts | 292° |
| 2026-04-28 09:47 | 58.95326 | 6.50788 | 19903 ft | 309 kts | 318° |
| 2026-04-28 09:47 | 58.96873 | 6.47942 | 19524 ft | 310 kts | 318° |
| 2026-04-28 09:47 | 58.98046 | 6.44421 | 19045 ft | 323 kts | 300° |
| 2026-04-28 09:47 | 58.98599 | 6.40127 | 18523 ft | 336 kts | 282° |
| 2026-04-28 09:48 | 58.98422 | 6.35551 | 17968 ft | 348 kts | 263° |
| 2026-04-28 09:48 | 58.97511 | 6.31144 | 17413 ft | 359 kts | 245° |
| 2026-04-28 09:48 | 58.95933 | 6.27347 | 16877 ft | 367 kts | 227° |
| 2026-04-28 09:48 | 58.94023 | 6.24069 | 16438 ft | 363 kts | 232° |
| 2026-04-28 09:49 | 58.92723 | 6.20034 | 16033 ft | 349 kts | 253° |
| 2026-04-28 09:49 | 58.91823 | 6.15703 | 15576 ft | 347 kts | 250° |
| 2026-04-28 09:49 | 58.90581 | 6.11671 | 15112 ft | 351 kts | 238° |
| 2026-04-28 09:49 | 58.89139 | 6.07941 | 14672 ft | 340 kts | 240° |
| 2026-04-28 09:50 | 58.88241 | 6.03879 | 14238 ft | 320 kts | 264° |
| 2026-04-28 09:50 | 58.87739 | 5.99785 | 13688 ft | 318 kts | 253° |
| 2026-04-28 09:50 | 58.86614 | 5.96094 | 13095 ft | 321 kts | 233° |
| 2026-04-28 09:50 | 58.84913 | 5.93309 | 12522 ft | 323 kts | 213° |
| 2026-04-28 09:51 | 58.82829 | 5.91737 | 11954 ft | 323 kts | 193° |
| 2026-04-28 09:51 | 58.80602 | 5.91566 | 11399 ft | 320 kts | 172° |
| 2026-04-28 09:51 | 58.78484 | 5.92754 | 10873 ft | 316 kts | 157° |
| 2026-04-28 09:51 | 58.76483 | 5.94423 | 10399 ft | 311 kts | 156° |
| 2026-04-28 09:52 | 58.74510 | 5.96104 | 9868 ft | 308 kts | 156° |
| 2026-04-28 09:52 | 58.72567 | 5.97771 | 9344 ft | 304 kts | 156° |
| 2026-04-28 09:52 | 58.70648 | 5.99424 | 8828 ft | 301 kts | 156° |
| 2026-04-28 09:52 | 58.68748 | 6.01071 | 8316 ft | 298 kts | 156° |
| 2026-04-28 09:53 | 58.66863 | 6.02720 | 7816 ft | 295 kts | 154° |
| 2026-04-28 09:53 | 58.65201 | 6.04909 | 7281 ft | 292 kts | 137° |
| 2026-04-28 09:53 | 58.63813 | 6.07723 | 6759 ft | 289 kts | 125° |
| 2026-04-28 09:53 | 58.62956 | 6.11154 | 6189 ft | 284 kts | 103° |
| 2026-04-28 09:54 | 58.62831 | 6.14858 | 5740 ft | 276 kts | 81° |
| 2026-04-28 09:54 | 58.63435 | 6.18286 | 5294 ft | 269 kts | 59° |
| 2026-04-28 09:54 | 58.64661 | 6.20910 | 4842 ft | 263 kts | 35° |
| 2026-04-28 09:54 | 58.66302 | 6.22286 | 4544 ft | 254 kts | 10° |
| 2026-04-28 09:55 | 58.68019 | 6.22184 | 4337 ft | 244 kts | 345° |
| 2026-04-28 09:55 | 58.69471 | 6.20672 | 4126 ft | 236 kts | 317° |
| 2026-04-28 09:55 | 58.70338 | 6.18083 | 3942 ft | 228 kts | 288° |
| 2026-04-28 09:55 | 58.70434 | 6.15153 | 3894 ft | 219 kts | 265° |
| 2026-04-28 09:56 | 58.70596 | 6.12345 | 3904 ft | 209 kts | 293° |
| 2026-04-28 09:56 | 58.71264 | 6.09893 | 3899 ft | 207 kts | 301° |
| 2026-04-28 09:56 | 58.71990 | 6.07513 | 3887 ft | 205 kts | 301° |
| 2026-04-28 09:56 | 58.72708 | 6.05190 | 3905 ft | 200 kts | 301° |
| 2026-04-28 09:57 | 58.73414 | 6.02870 | 3904 ft | 202 kts | 301° |
| 2026-04-28 09:57 | 58.74141 | 6.00566 | 3907 ft | 200 kts | 310° |
| 2026-04-28 09:57 | 58.75281 | 5.99105 | 3917 ft | 201 kts | 344° |
| 2026-04-28 09:57 | 58.76683 | 5.98931 | 3902 ft | 203 kts | 354° |
| 2026-04-28 09:58 | 58.78037 | 5.98257 | 3897 ft | 201 kts | 342° |
| 2026-04-28 09:58 | 58.79393 | 5.97429 | 3741 ft | 209 kts | 343° |
| 2026-04-28 09:58 | 58.80791 | 5.96703 | 3640 ft | 211 kts | 346° |
| 2026-04-28 09:58 | 58.82234 | 5.95959 | 3435 ft | 214 kts | 334° |
| 2026-04-28 09:59 | 58.83245 | 5.93923 | 3124 ft | 217 kts | 290° |
| 2026-04-28 09:59 | 58.83339 | 5.90999 | 2921 ft | 217 kts | 274° |
| 2026-04-28 09:59 | 58.83680 | 5.88240 | 2871 ft | 212 kts | 289° |
| 2026-04-28 09:59 | 58.84195 | 5.85593 | 2728 ft | 209 kts | 291° |
| 2026-04-28 10:00 | 58.84684 | 5.82929 | 2347 ft | 213 kts | 289° |
| 2026-04-28 10:00 | 58.85036 | 5.80254 | 2265 ft | 197 kts | 277° |
| 2026-04-28 10:00 | 58.85443 | 5.77826 | 2071 ft | 192 kts | 293° |
| 2026-04-28 10:00 | 58.85894 | 5.75433 | 1731 ft | 187 kts | 289° |
| 2026-04-28 10:01 | 58.86260 | 5.73115 | 1318 ft | 173 kts | 289° |
| 2026-04-28 10:01 | 58.86580 | 5.70936 | 914 ft | 162 kts | 288° |
| 2026-04-28 10:01 | 58.86886 | 5.68932 | 648 ft | 148 kts | 287° |
| 2026-04-28 10:01 | 58.87170 | 5.67066 | 381 ft | 144 kts | 289° |
| 2026-04-28 10:02 | 58.87460 | 5.65170 | 168 ft | 149 kts | 289° |
| 2026-04-28 10:02 | 58.87754 | 5.63289 | 36 ft | 138 kts | 286° |
| 2026-04-28 10:02 | 58.87951 | 5.61992 | 22 ft | 42 kts | 287° |
| 2026-04-28 10:02 | 58.88009 | 5.61565 | 19 ft | 12 kts | 259° |
| 2026-04-28 10:03 | 58.88027 | 5.61590 | 20 ft | 17 kts | 82° |
| 2026-04-28 10:03 | 58.88108 | 5.61765 | 20 ft | 18 kts | 43° |
| 2026-04-28 10:03 | 58.88166 | 5.61871 | 21 ft | 11 kts | 44° |
| 2026-04-28 10:03 | 58.88225 | 5.61983 | 22 ft | 13 kts | 44° |
| 2026-04-28 10:04 | 58.88252 | 5.62137 | 23 ft | 15 kts | 132° |
| 2026-04-28 10:04 | 58.88172 | 5.62295 | 22 ft | 18 kts | 135° |
| 2026-04-28 10:04 | 58.88095 | 5.62456 | 22 ft | 16 kts | 135° |
| 2026-04-28 10:04 | 58.88030 | 5.62580 | 21 ft | 14 kts | 128° |
| 2026-04-28 10:05 | 58.88001 | 5.62764 | 23 ft | 15 kts | 102° |
| 2026-04-28 10:05 | 58.87993 | 5.62979 | 23 ft | 17 kts | 69° |
| 2026-04-28 10:05 | 58.88066 | 5.63165 | 24 ft | 18 kts | 47° |
| 2026-04-28 10:05 | 58.88168 | 5.63292 | 26 ft | 17 kts | 11° |
| 2026-04-28 10:06 | 58.88288 | 5.63267 | 26 ft | 18 kts | 340° |
| 2026-04-28 10:06 | 58.88385 | 5.63209 | 26 ft | 15 kts | 329° |
| 2026-04-28 10:06 | 58.88447 | 5.63079 | 22 ft | 9 kts | 295° |
| 2026-04-28 10:06 | 58.88416 | 5.62995 | 23 ft | 10 kts | 226° |
| 2026-04-28 10:07 | 58.88388 | 5.62940 | 22 ft | 0 kts | 226° |
| 2026-04-28 10:08 | 58.88388 | 5.62941 | 22 ft | 0 kts | 226° |
| 2026-04-28 10:15 | 58.88388 | 5.62942 | 22 ft | 0 kts | 226° |